Time;durP1;ratioP1;P1;durP2;ratioP2;P2;SDS_P1;SDS_P2;PMS_P1;PMS_P2;Temp;Humidity;BMP_temperature;BMP_pressure;BME280_temperature;BME280_humidity;BME280_pressure;Samples;Min_cycle;Max_cycle;Signal;HPM_P1;HPM_P2
2023/07/16 00:01:59;;;;;;;6.45;4.97;;;23.80;78.60;;;;;;4968869;28;20431;-64
2023/07/16 00:04:24;;;;;;;7.80;4.38;;;23.70;78.60;;;;;;4967288;28;20053;-64
2023/07/16 00:06:50;;;;;;;5.15;4.30;;;23.70;78.90;;;;;;4970825;28;20472;-64
2023/07/16 00:09:16;;;;;;;6.25;4.25;;;23.70;79.00;;;;;;4970494;28;20043;-64
2023/07/16 00:11:41;;;;;;;7.80;4.43;;;23.70;79.00;;;;;;4972580;28;20144;-63
2023/07/16 00:14:07;;;;;;;6.35;4.10;;;23.60;79.30;;;;;;4967670;28;20039;-64
2023/07/16 00:16:33;;;;;;;6.95;4.13;;;23.60;79.20;;;;;;4966442;28;20043;-64
2023/07/16 00:18:58;;;;;;;5.55;3.30;;;23.60;79.00;;;;;;4966855;28;20046;-64
2023/07/16 00:21:24;;;;;;;4.32;3.50;;;23.60;79.10;;;;;;4967797;28;20061;-64
2023/07/16 00:23:50;;;;;;;4.55;3.25;;;23.60;79.00;;;;;;4971989;28;20498;-64
2023/07/16 00:26:16;;;;;;;4.22;2.83;;;23.50;79.10;;;;;;4970570;28;20142;-64
2023/07/16 00:28:42;;;;;;;3.65;2.78;;;23.50;78.80;;;;;;4970791;28;20026;-64
2023/07/16 00:31:07;;;;;;;3.00;2.70;;;23.50;78.60;;;;;;4969216;28;20063;-64
2023/07/16 00:33:33;;;;;;;3.10;2.50;;;23.40;78.70;;;;;;4971213;28;20039;-64
2023/07/16 00:35:58;;;;;;;2.78;2.58;;;23.40;78.70;;;;;;4969478;28;20038;-63
2023/07/16 00:38:24;;;;;;;4.28;2.47;;;23.40;78.90;;;;;;4971235;28;20043;-64
2023/07/16 00:40:53;;;;;;;2.97;2.50;;;23.40;78.90;;;;;;4972276;28;20174;-64
2023/07/16 00:43:18;;;;;;;2.72;2.53;;;23.30;79.00;;;;;;4970783;28;20038;-63
2023/07/16 00:45:46;;;;;;;3.60;2.58;;;23.30;78.80;;;;;;4968292;28;20046;-63
2023/07/16 00:48:12;;;;;;;3.55;2.40;;;23.20;79.00;;;;;;4973111;28;20030;-63
2023/07/16 00:50:39;;;;;;;5.22;2.30;;;23.20;78.70;;;;;;4970017;28;20418;-64
2023/07/16 00:53:06;;;;;;;3.05;2.10;;;23.10;79.10;;;;;;4969340;28;20045;-64
2023/07/16 00:55:33;;;;;;;2.65;2.38;;;23.10;79.20;;;;;;4970423;28;20266;-64
2023/07/16 00:58:05;;;;;;;3.80;2.50;;;23.00;79.30;;;;;;4970104;28;20042;-64
2023/07/16 01:00:35;;;;;;;2.65;2.35;;;23.00;79.80;;;;;;4968542;28;20042;-64
2023/07/16 01:03:14;;;;;;;4.13;2.53;;;23.00;80.00;;;;;;4967317;28;20039;-64
2023/07/16 01:05:55;;;;;;;3.10;2.47;;;23.00;80.80;;;;;;4968266;28;20121;-63
2023/07/16 01:08:38;;;;;;;3.75;2.78;;;23.00;80.40;;;;;;4968736;28;20055;-64
2023/07/16 01:11:04;;;;;;;4.70;2.40;;;23.00;81.70;;;;;;4972253;28;20109;-64
2023/07/16 01:13:30;;;;;;;3.60;2.42;;;23.00;80.50;;;;;;4975861;28;20429;-64
2023/07/16 01:15:56;;;;;;;6.30;2.60;;;23.00;80.90;;;;;;4976455;28;20043;-64
2023/07/16 01:18:21;;;;;;;3.03;2.28;;;23.00;81.10;;;;;;4976632;28;20043;-64
2023/07/16 01:20:47;;;;;;;3.70;2.58;;;23.00;80.90;;;;;;4970686;28;20046;-64
2023/07/16 01:23:36;;;;;;;3.40;2.35;;;22.90;81.10;;;;;;4972215;28;20494;-64
2023/07/16 01:26:10;;;;;;;2.90;2.50;;;22.90;81.90;;;;;;4971880;28;20042;-64
2023/07/16 01:28:52;;;;;;;3.88;2.60;;;22.90;81.90;;;;;;4970221;28;20031;-64
2023/07/16 01:31:18;;;;;;;2.80;2.13;;;22.90;81.70;;;;;;4967489;28;20058;-63
2023/07/16 01:33:45;;;;;;;3.13;2.10;;;22.90;81.30;;;;;;4974569;28;20045;-63
2023/07/16 01:36:11;;;;;;;3.45;2.40;;;22.80;81.30;;;;;;4973642;28;20133;-64
2023/07/16 01:38:37;;;;;;;3.38;1.58;;;22.70;81.30;;;;;;4972381;28;20045;-64
2023/07/16 01:41:03;;;;;;;1.55;1.20;;;22.70;79.00;;;;;;4974136;28;20046;-63
2023/07/16 01:43:28;;;;;;;1.83;1.20;;;22.60;78.40;;;;;;4973754;28;20039;-63
2023/07/16 01:45:54;;;;;;;1.20;1.10;;;22.50;77.60;;;;;;4967370;28;20466;-63
2023/07/16 01:48:30;;;;;;;1.42;1.02;;;22.30;77.20;;;;;;4971746;28;20030;-64
2023/07/16 01:50:55;;;;;;;1.10;1.00;;;22.10;77.10;;;;;;4971897;28;20553;-64
2023/07/16 01:53:21;;;;;;;1.17;1.00;;;22.00;77.50;;;;;;4973770;28;20031;-63
2023/07/16 01:55:47;;;;;;;0.88;0.88;;;21.80;77.50;;;;;;4972354;28;20049;-64
2023/07/16 01:58:12;;;;;;;0.90;0.90;;;21.70;78.20;;;;;;4974904;28;20026;-64
2023/07/16 02:00:38;;;;;;;0.93;0.90;;;21.60;78.90;;;;;;4970444;28;20050;-63
2023/07/16 02:03:04;;;;;;;1.05;0.75;;;21.50;79.30;;;;;;4969759;28;21755;-63
2023/07/16 02:05:30;;;;;;;0.98;0.82;;;21.50;80.00;;;;;;4973757;28;20592;-63
2023/07/16 02:07:55;;;;;;;1.23;1.00;;;21.40;80.00;;;;;;4973314;28;20073;-63
2023/07/16 02:10:21;;;;;;;0.80;0.80;;;21.50;80.00;;;;;;4976515;28;20034;-65
2023/07/16 02:12:46;;;;;;;0.82;0.82;;;21.50;80.50;;;;;;4967254;28;20065;-63
2023/07/16 02:15:12;;;;;;;1.13;1.08;;;21.50;81.00;;;;;;4971386;28;20046;-63
2023/07/16 02:17:38;;;;;;;2.10;0.93;;;21.50;81.10;;;;;;4971679;28;20046;-63
2023/07/16 02:20:07;;;;;;;0.88;0.88;;;21.50;81.10;;;;;;4969530;28;20046;-63
2023/07/16 02:22:35;;;;;;;1.55;1.00;;;21.50;81.10;;;;;;4972352;28;20632;-63
2023/07/16 02:25:01;;;;;;;1.75;1.10;;;21.50;81.40;;;;;;4975750;28;20038;-63
2023/07/16 02:27:26;;;;;;;1.02;0.90;;;21.50;81.00;;;;;;4966935;28;20046;-64
2023/07/16 02:29:52;;;;;;;0.80;0.80;;;21.50;80.90;;;;;;4968915;28;20039;-64
2023/07/16 02:32:17;;;;;;;1.15;1.05;;;21.40;80.90;;;;;;4971209;28;20042;-63
2023/07/16 02:34:43;;;;;;;1.08;0.80;;;21.40;81.20;;;;;;4971138;28;20762;-63
2023/07/16 02:37:09;;;;;;;3.38;0.88;;;21.30;81.50;;;;;;4973102;28;20051;-63
2023/07/16 02:39:34;;;;;;;2.35;1.10;;;21.30;81.70;;;;;;4971774;28;20401;-63
2023/07/16 02:42:00;;;;;;;1.27;0.95;;;21.40;82.00;;;;;;4974277;28;20153;-64
2023/07/16 02:44:25;;;;;;;2.85;1.08;;;21.40;82.40;;;;;;4974184;28;20572;-64
2023/07/16 02:46:51;;;;;;;1.95;1.05;;;21.40;82.60;;;;;;4968310;28;20078;-63
2023/07/16 02:49:17;;;;;;;1.35;1.10;;;21.50;82.90;;;;;;4970970;28;20035;-63
2023/07/16 02:51:42;;;;;;;1.30;1.20;;;21.50;82.90;;;;;;4972293;28;20035;-63
2023/07/16 02:54:08;;;;;;;1.48;1.00;;;21.50;82.80;;;;;;4970737;28;20041;-63
2023/07/16 02:56:34;;;;;;;2.17;1.02;;;21.60;82.90;;;;;;4972978;28;20045;-64
2023/07/16 02:58:59;;;;;;;1.40;1.30;;;21.60;82.70;;;;;;4968036;28;20050;-63
2023/07/16 03:01:25;;;;;;;1.30;1.15;;;21.60;82.90;;;;;;4972373;28;20065;-63
2023/07/16 03:03:51;;;;;;;1.27;1.15;;;21.60;82.90;;;;;;4971690;28;20041;-64
2023/07/16 03:06:17;;;;;;;1.52;1.10;;;21.70;83.10;;;;;;4971877;28;20491;-63
2023/07/16 03:08:42;;;;;;;1.83;1.45;;;21.70;83.10;;;;;;4972340;28;20038;-62
2023/07/16 03:11:08;;;;;;;2.35;1.30;;;21.70;83.00;;;;;;4974437;28;20045;-62
2023/07/16 03:13:34;;;;;;;1.30;1.20;;;21.70;82.70;;;;;;4970096;28;20035;-64
2023/07/16 03:15:59;;;;;;;1.85;1.10;;;21.80;82.60;;;;;;4971872;28;20097;-63
2023/07/16 03:18:29;;;;;;;1.10;1.00;;;21.80;82.20;;;;;;4969510;28;20654;-63
2023/07/16 03:20:55;;;;;;;1.25;1.15;;;21.90;82.30;;;;;;4968451;28;20170;-63
2023/07/16 03:23:21;;;;;;;2.47;1.23;;;21.90;81.90;;;;;;4973092;28;20577;-62
2023/07/16 03:25:49;;;;;;;2.15;0.93;;;21.80;81.50;;;;;;4973589;28;20038;-62
2023/07/16 03:28:15;;;;;;;1.20;1.10;;;21.80;81.00;;;;;;4973561;28;20418;-64
2023/07/16 03:30:44;;;;;;;1.52;1.38;;;21.80;80.80;;;;;;4970389;28;20035;-63
2023/07/16 03:33:10;;;;;;;1.98;1.20;;;21.80;80.60;;;;;;4971622;28;20835;-64
2023/07/16 03:35:35;;;;;;;1.17;1.08;;;21.90;81.50;;;;;;4971903;28;20035;-64
2023/07/16 03:38:01;;;;;;;1.48;1.10;;;21.80;80.30;;;;;;4970830;28;20419;-63
2023/07/16 03:40:27;;;;;;;1.40;1.13;;;21.80;80.50;;;;;;4968240;28;20065;-64
2023/07/16 03:42:53;;;;;;;1.20;1.10;;;21.80;80.50;;;;;;4969467;28;20101;-64
2023/07/16 03:45:18;;;;;;;1.10;1.00;;;21.80;80.80;;;;;;4968883;28;20790;-63
2023/07/16 03:47:44;;;;;;;1.83;1.10;;;21.90;81.20;;;;;;4973151;28;20084;-63
2023/07/16 03:50:10;;;;;;;1.27;1.17;;;21.80;81.20;;;;;;4968185;28;20034;-62
2023/07/16 03:52:36;;;;;;;3.42;1.30;;;21.80;81.30;;;;;;4971562;28;20583;-63
2023/07/16 03:55:02;;;;;;;7.30;1.73;;;21.80;81.70;;;;;;4972303;28;20171;-63
2023/07/16 03:57:29;;;;;;;2.50;1.33;;;21.80;81.80;;;;;;4970498;28;20594;-64
2023/07/16 03:59:55;;;;;;;1.75;1.05;;;21.70;81.90;;;;;;4971011;28;20046;-63
2023/07/16 04:02:21;;;;;;;1.73;1.20;;;21.70;82.00;;;;;;4967157;28;20065;-63
2023/07/16 04:04:46;;;;;;;1.50;1.27;;;21.60;82.20;;;;;;4969106;28;20042;-63
2023/07/16 04:07:12;;;;;;;1.77;1.20;;;21.60;82.60;;;;;;4969932;28;20102;-63
2023/07/16 04:09:38;;;;;;;1.52;1.20;;;21.60;82.70;;;;;;4969836;28;20418;-64
2023/07/16 04:12:05;;;;;;;1.70;1.10;;;21.60;83.00;;;;;;4970844;28;20050;-63
2023/07/16 04:14:30;;;;;;;1.25;1.08;;;21.50;83.10;;;;;;4969445;28;20038;-63
2023/07/16 04:16:56;;;;;;;1.58;1.00;;;21.40;83.10;;;;;;4968033;28;20657;-63
2023/07/16 04:19:21;;;;;;;1.05;0.90;;;21.40;83.00;;;;;;4966904;28;20094;-63
2023/07/16 04:21:47;;;;;;;1.38;1.10;;;21.30;83.20;;;;;;4968022;28;20067;-63
2023/07/16 04:24:13;;;;;;;1.98;1.15;;;21.20;83.30;;;;;;4964757;28;20031;-62
2023/07/16 04:26:38;;;;;;;1.15;0.85;;;21.20;82.90;;;;;;4967606;28;20381;-63
2023/07/16 04:29:04;;;;;;;0.98;0.98;;;21.10;83.10;;;;;;4969208;28;20033;-63
2023/07/16 04:31:29;;;;;;;1.20;1.10;;;21.10;83.30;;;;;;4967753;28;20027;-63
2023/07/16 04:33:55;;;;;;;1.40;1.10;;;21.10;83.60;;;;;;4970035;28;20126;-63
2023/07/16 04:36:20;;;;;;;2.17;0.93;;;21.00;83.50;;;;;;4966503;28;20101;-64
2023/07/16 04:38:46;;;;;;;2.20;0.90;;;20.90;83.50;;;;;;4964698;28;20073;-63
2023/07/16 04:41:12;;;;;;;1.23;0.95;;;20.80;83.40;;;;;;4966472;28;20457;-63
2023/07/16 04:43:39;;;;;;;1.05;0.80;;;20.80;83.30;;;;;;4970554;28;20038;-63
2023/07/16 04:46:04;;;;;;;3.00;1.00;;;20.80;83.30;;;;;;4966713;28;20043;-63
2023/07/16 04:48:30;;;;;;;2.88;1.27;;;20.70;83.50;;;;;;4964845;28;20033;-62
2023/07/16 04:50:55;;;;;;;1.30;1.20;;;20.70;83.70;;;;;;4972185;28;20046;-63
2023/07/16 04:53:22;;;;;;;2.45;1.00;;;20.70;83.80;;;;;;4971238;28;20030;-63
2023/07/16 04:55:49;;;;;;;2.15;1.20;;;20.70;84.00;;;;;;4969857;28;20121;-63
2023/07/16 04:58:15;;;;;;;0.88;0.88;;;20.60;83.70;;;;;;4972244;28;20037;-63
2023/07/16 05:00:41;;;;;;;1.80;0.90;;;20.60;83.60;;;;;;4971373;28;20046;-63
2023/07/16 05:03:07;;;;;;;1.10;1.00;;;20.60;83.70;;;;;;4970358;28;20417;-63
2023/07/16 05:05:32;;;;;;;1.65;1.10;;;20.50;83.80;;;;;;4970304;28;20038;-63
2023/07/16 05:07:58;;;;;;;2.60;1.02;;;20.50;83.80;;;;;;4971115;28;20126;-63
2023/07/16 05:10:23;;;;;;;1.00;0.90;;;20.50;83.80;;;;;;4971385;28;20046;-63
2023/07/16 05:12:49;;;;;;;3.03;0.80;;;20.40;83.60;;;;;;4973233;28;20121;-62
2023/07/16 05:15:15;;;;;;;2.90;1.17;;;20.40;83.80;;;;;;4976675;28;20474;-63
2023/07/16 05:17:41;;;;;;;2.03;0.85;;;20.40;85.00;;;;;;4972331;28;20035;-63
2023/07/16 05:20:08;;;;;;;1.95;0.80;;;20.40;84.20;;;;;;4974786;28;20242;-63
2023/07/16 05:22:34;;;;;;;2.25;1.00;;;20.30;84.20;;;;;;4971595;28;20126;-64
2023/07/16 05:25:00;;;;;;;1.25;1.02;;;20.30;84.30;;;;;;4975721;28;20113;-63
2023/07/16 05:27:25;;;;;;;1.65;0.90;;;20.40;84.30;;;;;;4974755;28;20096;-63
2023/07/16 05:29:51;;;;;;;1.15;1.00;;;20.30;84.10;;;;;;4973510;28;20038;-63
2023/07/16 05:32:17;;;;;;;0.90;0.80;;;20.30;84.30;;;;;;4970773;28;20475;-63
2023/07/16 05:34:42;;;;;;;1.13;0.98;;;20.30;84.40;;;;;;4973738;28;20031;-64
2023/07/16 05:37:08;;;;;;;1.02;0.95;;;20.30;84.50;;;;;;4971359;28;20062;-63
2023/07/16 05:39:34;;;;;;;1.10;1.00;;;20.30;84.30;;;;;;4972319;28;20045;-64
2023/07/16 05:42:02;;;;;;;1.02;0.93;;;20.30;84.50;;;;;;4972097;28;20458;-64
2023/07/16 05:44:28;;;;;;;0.90;0.80;;;20.30;84.50;;;;;;4973606;28;20038;-64
2023/07/16 05:46:56;;;;;;;1.67;1.10;;;20.30;84.10;;;;;;4976074;28;20159;-64
2023/07/16 05:49:22;;;;;;;0.82;0.80;;;20.30;84.10;;;;;;4966759;28;20113;-63
2023/07/16 05:51:48;;;;;;;1.50;0.80;;;20.30;84.10;;;;;;4969592;28;20502;-64
2023/07/16 05:54:14;;;;;;;2.50;1.35;;;20.20;83.80;;;;;;4972105;28;20514;-63
2023/07/16 05:56:39;;;;;;;1.02;0.88;;;20.20;84.10;;;;;;4969056;28;20132;-63
2023/07/16 05:59:05;;;;;;;0.82;0.70;;;20.30;84.20;;;;;;4969460;28;20042;-63
2023/07/16 06:01:30;;;;;;;4.22;1.00;;;20.20;84.10;;;;;;4971673;28;20031;-64
2023/07/16 06:03:56;;;;;;;1.50;0.85;;;20.30;83.80;;;;;;4970124;28;20042;-64
2023/07/16 06:06:21;;;;;;;2.25;1.08;;;20.30;83.50;;;;;;4969639;28;20047;-64
2023/07/16 06:08:48;;;;;;;1.83;0.88;;;20.20;83.30;;;;;;4968116;28;20525;-62
2023/07/16 06:11:13;;;;;;;0.95;0.88;;;20.20;84.20;;;;;;4966730;28;20066;-63
2023/07/16 06:13:39;;;;;;;0.90;0.90;;;20.20;82.90;;;;;;4962768;28;20118;-63
2023/07/16 06:16:04;;;;;;;2.28;1.30;;;20.30;83.10;;;;;;4965555;28;20034;-63
2023/07/16 06:18:35;;;;;;;1.20;0.82;;;20.30;83.20;;;;;;4961138;28;20042;-63
2023/07/16 06:21:04;;;;;;;1.00;0.90;;;20.30;83.20;;;;;;4970395;28;20490;-63
2023/07/16 06:23:29;;;;;;;0.98;0.88;;;20.20;83.40;;;;;;4972225;28;20049;-63
2023/07/16 06:25:55;;;;;;;1.63;0.88;;;20.20;83.20;;;;;;4961634;28;20046;-63
2023/07/16 06:28:21;;;;;;;1.10;1.00;;;20.30;83.30;;;;;;4959752;28;20513;-63
2023/07/16 06:30:47;;;;;;;1.98;1.00;;;20.30;83.40;;;;;;4959799;28;20039;-63
2023/07/16 06:33:12;;;;;;;1.20;0.90;;;20.30;83.60;;;;;;4965829;28;20038;-63
2023/07/16 06:35:38;;;;;;;1.60;1.00;;;20.40;83.40;;;;;;4960064;28;20042;-64
2023/07/16 06:38:07;;;;;;;2.08;1.00;;;20.40;83.40;;;;;;4963005;28;20114;-63
2023/07/16 06:40:32;;;;;;;1.15;0.95;;;20.40;82.90;;;;;;4963259;28;20064;-63
2023/07/16 06:42:58;;;;;;;1.02;0.93;;;20.50;82.70;;;;;;4975331;28;20498;-63
2023/07/16 06:45:23;;;;;;;1.35;1.00;;;20.50;82.70;;;;;;4976262;28;20490;-63
2023/07/16 06:47:49;;;;;;;1.38;0.80;;;20.50;82.50;;;;;;4977296;28;20042;-63
2023/07/16 06:50:15;;;;;;;0.80;0.80;;;20.40;82.10;;;;;;4977256;28;20034;-62
2023/07/16 06:52:43;;;;;;;1.02;0.70;;;20.50;81.90;;;;;;4973854;28;20091;-63
2023/07/16 06:55:09;;;;;;;0.63;0.63;;;20.50;82.40;;;;;;4972879;28;20050;-63
2023/07/16 06:57:34;;;;;;;1.13;0.80;;;20.40;82.10;;;;;;4972236;28;20042;-63
2023/07/16 07:00:00;;;;;;;1.50;0.90;;;20.40;82.10;;;;;;4960765;28;20405;-63
2023/07/16 07:02:25;;;;;;;1.02;0.82;;;20.50;82.40;;;;;;4960984;28;20033;-63
2023/07/16 07:04:51;;;;;;;1.40;0.90;;;20.50;82.60;;;;;;4965079;28;20038;-63
2023/07/16 07:07:17;;;;;;;2.78;1.02;;;20.50;82.50;;;;;;4957694;28;20039;-62
2023/07/16 07:09:43;;;;;;;1.70;0.82;;;20.60;82.40;;;;;;4960537;28;20038;-63
2023/07/16 07:12:08;;;;;;;1.38;0.60;;;20.60;82.70;;;;;;4961449;28;20714;-63
2023/07/16 07:14:34;;;;;;;1.20;1.10;;;20.60;82.40;;;;;;4960911;28;20073;-62
2023/07/16 07:16:59;;;;;;;1.17;0.95;;;20.70;82.80;;;;;;4959523;28;20410;-60
2023/07/16 07:19:25;;;;;;;2.45;1.00;;;20.70;82.90;;;;;;4965660;28;20565;-63
2023/07/16 07:21:51;;;;;;;1.00;0.90;;;20.80;82.90;;;;;;4968871;28;20514;-63
2023/07/16 07:24:16;;;;;;;1.90;0.73;;;20.90;82.40;;;;;;4972561;28;20089;-62
2023/07/16 07:26:42;;;;;;;1.10;0.95;;;20.90;81.70;;;;;;4974139;28;20473;-62
2023/07/16 07:29:08;;;;;;;0.90;0.75;;;20.90;81.10;;;;;;4973488;28;20404;-63
2023/07/16 07:31:33;;;;;;;1.15;0.73;;;20.90;80.70;;;;;;4967374;28;20054;-62
2023/07/16 07:33:59;;;;;;;1.13;0.98;;;20.90;81.30;;;;;;4972726;28;20043;-62
2023/07/16 07:36:25;;;;;;;1.17;0.80;;;20.90;80.20;;;;;;4966112;28;20042;-63
2023/07/16 07:38:50;;;;;;;1.20;0.65;;;20.90;79.80;;;;;;4965257;28;20049;-63
2023/07/16 07:41:16;;;;;;;1.25;0.80;;;20.90;80.00;;;;;;4968243;28;20449;-63
2023/07/16 07:43:42;;;;;;;0.82;0.80;;;20.90;80.10;;;;;;4974002;28;20082;-63
2023/07/16 07:46:08;;;;;;;1.10;0.90;;;20.90;80.30;;;;;;4971850;28;20035;-61
2023/07/16 07:48:33;;;;;;;0.95;0.77;;;20.80;80.50;;;;;;4961959;28;20275;-64
2023/07/16 07:50:59;;;;;;;0.98;0.75;;;20.80;80.20;;;;;;4964256;28;20030;-62
2023/07/16 07:53:24;;;;;;;1.52;0.77;;;20.80;80.10;;;;;;4965168;28;20391;-62
2023/07/16 07:55:50;;;;;;;1.95;0.80;;;20.90;80.10;;;;;;4958901;28;20048;-63
2023/07/16 07:58:15;;;;;;;1.13;0.90;;;21.00;79.90;;;;;;4957703;28;20030;-63
2023/07/16 08:00:41;;;;;;;0.70;0.70;;;21.00;79.40;;;;;;4973069;28;20037;-63
2023/07/16 08:03:07;;;;;;;1.05;0.80;;;21.10;79.40;;;;;;4973037;28;20050;-62
2023/07/16 08:05:33;;;;;;;1.55;0.88;;;21.20;79.60;;;;;;4969661;28;20053;-62
2023/07/16 08:07:59;;;;;;;2.40;0.95;;;21.30;79.30;;;;;;4961957;28;20507;-62
2023/07/16 08:10:25;;;;;;;1.40;0.90;;;21.40;78.90;;;;;;4968842;28;20042;-62
2023/07/16 08:12:50;;;;;;;0.73;0.73;;;21.40;78.40;;;;;;4975077;28;20038;-62
2023/07/16 08:15:17;;;;;;;0.90;0.80;;;21.50;78.40;;;;;;4973093;28;20065;-62
2023/07/16 08:17:44;;;;;;;1.83;0.90;;;21.60;78.40;;;;;;4972812;28;20049;-61
2023/07/16 08:20:11;;;;;;;1.30;0.80;;;21.60;77.20;;;;;;4973819;28;20066;-63
2023/07/16 08:22:37;;;;;;;0.90;0.80;;;21.70;76.30;;;;;;4971527;28;20077;-62
2023/07/16 08:25:03;;;;;;;1.25;0.85;;;21.80;75.80;;;;;;4979626;28;20093;-61
2023/07/16 08:27:30;;;;;;;2.05;1.00;;;21.80;75.40;;;;;;4978766;28;20042;-63
2023/07/16 08:29:55;;;;;;;2.90;1.08;;;21.80;74.40;;;;;;4979510;28;20053;-63
2023/07/16 08:32:22;;;;;;;0.82;0.70;;;21.90;75.70;;;;;;4979486;28;20034;-63
2023/07/16 08:34:48;;;;;;;0.65;0.65;;;22.00;74.60;;;;;;4978669;28;20039;-62
2023/07/16 08:37:14;;;;;;;0.98;0.80;;;22.00;74.90;;;;;;4976211;28;20116;-63
2023/07/16 08:39:39;;;;;;;0.90;0.90;;;22.10;74.60;;;;;;4978654;28;20046;-63
2023/07/16 08:42:06;;;;;;;1.42;1.00;;;22.20;73.60;;;;;;4977330;28;20476;-63
2023/07/16 08:44:31;;;;;;;1.90;0.80;;;22.30;73.30;;;;;;4977613;28;20045;-63
2023/07/16 08:46:57;;;;;;;2.00;0.80;;;22.40;74.10;;;;;;4979212;28;20039;-63
2023/07/16 08:49:25;;;;;;;1.20;0.77;;;22.40;72.20;;;;;;4977523;28;20042;-62
2023/07/16 08:51:54;;;;;;;0.80;0.80;;;22.50;72.00;;;;;;4976685;28;20034;-62
2023/07/16 08:54:19;;;;;;;1.42;0.90;;;22.50;71.60;;;;;;4978323;28;20035;-63
2023/07/16 08:56:47;;;;;;;1.25;1.10;;;22.60;72.00;;;;;;4975950;28;20036;-62
2023/07/16 08:59:14;;;;;;;1.60;1.08;;;22.60;71.60;;;;;;4978392;28;20034;-61
2023/07/16 09:01:40;;;;;;;1.45;1.00;;;22.70;70.70;;;;;;4979348;28;20065;-63
2023/07/16 09:04:05;;;;;;;0.88;0.85;;;22.70;70.60;;;;;;4975782;28;20039;-63
2023/07/16 09:06:31;;;;;;;1.65;0.75;;;22.80;70.70;;;;;;4978233;28;20409;-62
2023/07/16 09:08:59;;;;;;;0.90;0.90;;;22.80;70.20;;;;;;4978280;28;20038;-62
2023/07/16 09:11:24;;;;;;;1.10;0.82;;;22.90;69.70;;;;;;4977858;28;20054;-64
2023/07/16 09:13:50;;;;;;;1.27;0.93;;;22.90;69.00;;;;;;4978350;28;20057;-62
2023/07/16 09:16:18;;;;;;;1.20;0.95;;;23.00;69.70;;;;;;4978554;28;20414;-63
2023/07/16 09:18:45;;;;;;;1.70;1.00;;;23.00;68.70;;;;;;4978998;28;20035;-61
2023/07/16 09:21:11;;;;;;;1.25;0.82;;;23.00;69.20;;;;;;4979339;28;20402;-63
2023/07/16 09:23:37;;;;;;;2.20;0.90;;;23.00;69.40;;;;;;4977882;28;20098;-61
2023/07/16 09:26:03;;;;;;;1.33;0.80;;;23.00;69.40;;;;;;4979055;28;20066;-62
2023/07/16 09:28:30;;;;;;;1.30;0.88;;;23.00;69.90;;;;;;4977552;28;20066;-63
2023/07/16 09:31:03;;;;;;;3.95;1.10;;;23.10;70.00;;;;;;4977472;28;20039;-62
2023/07/16 09:33:28;;;;;;;0.85;0.85;;;23.20;69.90;;;;;;4975994;28;20052;-62
2023/07/16 09:35:54;;;;;;;1.95;1.00;;;23.20;70.00;;;;;;4976702;28;20514;-62
2023/07/16 09:38:21;;;;;;;1.50;1.00;;;23.30;69.20;;;;;;4978581;28;20073;-63
2023/07/16 09:40:46;;;;;;;1.50;0.85;;;23.40;68.70;;;;;;4977397;28;20418;-63
2023/07/16 09:43:13;;;;;;;1.10;1.00;;;23.40;68.90;;;;;;4977482;28;20034;-62
2023/07/16 09:45:38;;;;;;;1.10;1.00;;;23.40;67.40;;;;;;4977330;28;20526;-63
2023/07/16 09:48:04;;;;;;;0.88;0.80;;;23.50;67.90;;;;;;4977823;28;20133;-63
2023/07/16 09:50:34;;;;;;;1.52;0.80;;;23.50;67.20;;;;;;4977336;28;20042;-62
2023/07/16 09:53:02;;;;;;;0.73;0.73;;;23.60;67.10;;;;;;4976318;28;20046;-63
2023/07/16 09:55:30;;;;;;;0.82;0.82;;;23.60;66.20;;;;;;4970259;28;20049;-63
2023/07/16 09:57:57;;;;;;;0.95;0.85;;;23.70;66.60;;;;;;4976649;28;20061;-63
2023/07/16 10:00:24;;;;;;;2.33;1.05;;;23.70;66.40;;;;;;4978703;28;20077;-63
2023/07/16 10:02:52;;;;;;;1.70;0.90;;;23.80;66.40;;;;;;4975104;28;20039;-63
2023/07/16 10:05:19;;;;;;;1.42;1.13;;;23.80;65.30;;;;;;4975838;28;20031;-62
2023/07/16 10:07:53;;;;;;;1.25;0.93;;;23.90;65.40;;;;;;4978268;28;20035;-63
2023/07/16 10:10:19;;;;;;;1.23;0.80;;;24.00;65.50;;;;;;4972250;28;20030;-64
2023/07/16 10:13:01;;;;;;;0.88;0.80;;;24.00;65.90;;;;;;4977049;28;20406;-62
2023/07/16 10:15:28;;;;;;;0.98;0.90;;;24.10;65.80;;;;;;4978912;28;20035;-63
2023/07/16 10:17:55;;;;;;;1.00;0.90;;;24.10;65.90;;;;;;4977415;28;20041;-63
2023/07/16 10:20:34;;;;;;;1.50;1.15;;;24.20;66.00;;;;;;4977174;28;20141;-62
2023/07/16 10:23:20;;;;;;;1.40;1.10;;;24.30;63.90;;;;;;4974975;28;20533;-63
2023/07/16 10:26:09;;;;;;;1.10;1.00;;;24.30;64.50;;;;;;4978371;28;20038;-63
2023/07/16 10:28:35;;;;;;;0.93;0.80;;;24.40;65.30;;;;;;4975994;28;20035;-63
2023/07/16 10:31:00;;;;;;;2.05;1.00;;;24.40;65.60;;;;;;4976572;28;20075;-62
2023/07/16 10:33:26;;;;;;;1.00;0.98;;;24.50;63.90;;;;;;4975878;28;20499;-62
2023/07/16 10:35:52;;;;;;;1.80;0.90;;;24.50;64.30;;;;;;4977336;28;20038;-62
2023/07/16 10:38:17;;;;;;;1.15;1.00;;;24.60;62.70;;;;;;4976463;28;20031;-61
2023/07/16 10:40:44;;;;;;;1.10;0.98;;;24.60;63.60;;;;;;4974955;28;20038;-63
2023/07/16 10:43:10;;;;;;;1.52;1.00;;;24.70;62.50;;;;;;4975001;28;20030;-63
2023/07/16 10:45:36;;;;;;;1.08;0.98;;;24.70;62.60;;;;;;4970110;28;20117;-62
2023/07/16 10:48:02;;;;;;;0.80;0.80;;;24.80;62.70;;;;;;4973761;28;20137;-63
2023/07/16 10:50:28;;;;;;;1.17;0.90;;;24.80;62.70;;;;;;4976122;28;20438;-62
2023/07/16 10:52:55;;;;;;;1.27;0.98;;;24.90;61.90;;;;;;4974517;28;20557;-63
2023/07/16 10:55:21;;;;;;;1.17;1.00;;;25.00;61.90;;;;;;4975860;28;20047;-63
2023/07/16 10:57:51;;;;;;;1.08;0.98;;;25.00;60.10;;;;;;4976562;28;20045;-61
2023/07/16 11:00:17;;;;;;;0.82;0.82;;;25.00;61.40;;;;;;4974834;28;20270;-63
2023/07/16 11:02:44;;;;;;;1.23;0.80;;;25.00;62.10;;;;;;4974328;28;20058;-63
2023/07/16 11:05:11;;;;;;;0.88;0.80;;;25.00;61.60;;;;;;4976218;28;20703;-63
2023/07/16 11:07:37;;;;;;;1.60;1.25;;;25.10;62.00;;;;;;4976660;28;20046;-62
2023/07/16 11:10:03;;;;;;;1.13;1.02;;;25.10;61.10;;;;;;4974476;28;20042;-63
2023/07/16 11:12:28;;;;;;;1.35;1.10;;;25.20;60.30;;;;;;4975901;28;20034;-63
2023/07/16 11:14:55;;;;;;;2.45;0.88;;;25.20;61.20;;;;;;4974128;28;20506;-61
2023/07/16 11:17:23;;;;;;;1.23;0.90;;;25.20;61.10;;;;;;4976410;28;20622;-63
2023/07/16 11:19:51;;;;;;;0.88;0.82;;;25.20;60.20;;;;;;4974573;28;20093;-63
2023/07/16 11:22:18;;;;;;;1.25;0.90;;;25.20;59.80;;;;;;4977276;28;20354;-63
2023/07/16 11:24:48;;;;;;;1.00;0.88;;;25.20;59.60;;;;;;4974905;28;20557;-63
2023/07/16 11:27:26;;;;;;;1.02;1.02;;;25.20;60.00;;;;;;4974745;28;20515;-63
2023/07/16 11:29:59;;;;;;;0.93;0.80;;;25.20;59.50;;;;;;4974852;28;20035;-63
2023/07/16 11:32:46;;;;;;;1.05;0.93;;;25.20;59.80;;;;;;4975404;28;20038;-62
2023/07/16 11:35:19;;;;;;;1.48;0.90;;;25.20;58.60;;;;;;4974501;28;20027;-63
2023/07/16 11:37:46;;;;;;;1.00;1.00;;;25.30;59.50;;;;;;4976620;28;20491;-63
2023/07/16 11:40:16;;;;;;;1.00;0.90;;;25.20;60.20;;;;;;4973093;28;20042;-62
2023/07/16 11:42:42;;;;;;;0.80;0.80;;;25.20;60.40;;;;;;4974933;28;20047;-62
2023/07/16 11:45:26;;;;;;;1.08;0.93;;;25.30;61.00;;;;;;4973334;28;20114;-63
2023/07/16 11:47:52;;;;;;;0.98;0.90;;;25.30;59.60;;;;;;4974602;28;20038;-64
2023/07/16 11:50:18;;;;;;;0.95;0.85;;;25.40;60.40;;;;;;4975098;28;20517;-63
2023/07/16 11:52:53;;;;;;;1.20;0.93;;;25.40;60.10;;;;;;4974340;28;20039;-61
2023/07/16 11:55:19;;;;;;;1.63;0.90;;;25.50;59.70;;;;;;4975420;28;20061;-63
2023/07/16 11:57:44;;;;;;;1.80;0.90;;;25.50;60.60;;;;;;4975517;28;20506;-63
2023/07/16 12:00:11;;;;;;;0.90;0.90;;;25.50;59.90;;;;;;4974563;28;20177;-63
2023/07/16 12:02:37;;;;;;;1.08;0.98;;;25.60;59.60;;;;;;4971381;28;20042;-62
2023/07/16 12:05:03;;;;;;;1.00;1.00;;;25.70;59.90;;;;;;4975654;28;20745;-63
2023/07/16 12:07:36;;;;;;;2.25;0.85;;;25.70;60.20;;;;;;4976300;28;20042;-63
2023/07/16 12:10:06;;;;;;;0.98;0.80;;;25.80;59.90;;;;;;4974298;28;20418;-63
2023/07/16 12:12:33;;;;;;;0.95;0.85;;;25.80;59.80;;;;;;4973806;28;20043;-62
2023/07/16 12:14:59;;;;;;;1.10;1.00;;;25.80;59.80;;;;;;4976798;28;20508;-63
2023/07/16 12:17:25;;;;;;;1.48;1.08;;;25.90;59.50;;;;;;4973123;28;20045;-62
2023/07/16 12:19:51;;;;;;;0.95;0.90;;;25.90;59.20;;;;;;4975612;28;20039;-64
2023/07/16 12:22:18;;;;;;;2.28;1.00;;;25.90;58.70;;;;;;4974090;28;20197;-63
2023/07/16 12:24:44;;;;;;;1.02;1.00;;;25.80;58.70;;;;;;4971602;28;20039;-63
2023/07/16 12:27:09;;;;;;;1.98;1.00;;;25.80;58.80;;;;;;4969657;28;20035;-63
2023/07/16 12:29:35;;;;;;;0.85;0.85;;;25.70;59.20;;;;;;4972918;28;20030;-63
2023/07/16 12:32:00;;;;;;;2.60;0.90;;;25.70;59.50;;;;;;4970499;28;20090;-63
2023/07/16 12:34:26;;;;;;;0.80;0.80;;;25.70;59.40;;;;;;4973289;28;20065;-63
2023/07/16 12:36:51;;;;;;;0.88;0.88;;;25.70;59.70;;;;;;4972037;28;20169;-63
2023/07/16 12:39:17;;;;;;;1.02;1.00;;;25.70;59.60;;;;;;4971009;28;20541;-63
2023/07/16 12:41:43;;;;;;;1.00;1.00;;;25.70;59.50;;;;;;4973591;28;20050;-63
2023/07/16 12:44:09;;;;;;;1.85;0.90;;;25.80;59.50;;;;;;4974300;28;20035;-63
2023/07/16 12:46:34;;;;;;;1.80;0.90;;;25.80;59.20;;;;;;4971563;28;20042;-63